Time;durP1;ratioP1;P1;durP2;ratioP2;P2;SDS_P1;SDS_P2;PMS_P1;PMS_P2;Temp;Humidity;BMP_temperature;BMP_pressure;BME280_temperature;BME280_humidity;BME280_pressure;Samples;Min_cycle;Max_cycle;Signal;HPM_P1;HPM_P2
2023/11/13 00:01:08;;;;;;;7.73;3.47;;;21.60;92.50;;;;;;5047620;28;21409;-63
2023/11/13 00:03:35;;;;;;;6.23;3.40;;;21.60;92.90;;;;;;5048941;28;20455;-66
2023/11/13 00:06:03;;;;;;;4.60;3.20;;;21.60;92.50;;;;;;5048320;28;20459;-65
2023/11/13 00:08:32;;;;;;;5.70;3.53;;;21.60;92.50;;;;;;5053848;28;20462;-64
2023/11/13 00:10:58;;;;;;;3.80;2.90;;;21.60;92.60;;;;;;5049167;28;20510;-63
2023/11/13 00:13:25;;;;;;;6.50;3.67;;;21.60;92.60;;;;;;5046695;28;20481;-63
2023/11/13 00:15:52;;;;;;;4.30;3.60;;;21.60;92.60;;;;;;5044477;28;20500;-60
2023/11/13 00:18:19;;;;;;;5.53;3.73;;;21.60;92.60;;;;;;5044933;28;20480;-64
2023/11/13 00:20:46;;;;;;;5.80;3.53;;;21.60;92.60;;;;;;5045473;28;20456;-67
2023/11/13 00:23:13;;;;;;;5.47;3.40;;;21.60;92.60;;;;;;5049611;28;20454;-65
2023/11/13 00:25:41;;;;;;;4.40;3.00;;;21.60;92.60;;;;;;5045802;28;20452;-67
2023/11/13 00:28:07;;;;;;;3.70;2.60;;;21.50;92.50;;;;;;5047730;28;20552;-63
2023/11/13 00:30:34;;;;;;;4.23;3.10;;;21.50;92.50;;;;;;5044660;28;20460;-66
2023/11/13 00:33:01;;;;;;;4.23;3.30;;;21.50;92.60;;;;;;5046261;28;20457;-65
2023/11/13 00:35:28;;;;;;;5.50;2.90;;;21.50;92.60;;;;;;5042573;28;21076;-66
2023/11/13 00:37:57;;;;;;;3.97;3.57;;;21.50;92.60;;;;;;5050342;28;20461;-67
2023/11/13 00:40:24;;;;;;;4.53;3.53;;;21.50;92.60;;;;;;5052246;28;20493;-65
2023/11/13 00:42:52;;;;;;;6.53;3.30;;;21.50;92.60;;;;;;5049918;28;20958;-62
2023/11/13 00:45:19;;;;;;;5.20;2.93;;;21.50;92.60;;;;;;5047154;28;20478;-66
2023/11/13 00:47:45;;;;;;;4.50;3.03;;;21.50;92.60;;;;;;5052723;28;20452;-66
2023/11/13 00:50:12;;;;;;;4.00;2.80;;;21.50;92.60;;;;;;5048160;28;20467;-66
2023/11/13 00:52:40;;;;;;;3.73;3.33;;;21.50;92.60;;;;;;5050423;28;20464;-64
2023/11/13 00:55:09;;;;;;;3.30;2.60;;;21.50;92.60;;;;;;5048540;28;21047;-66
2023/11/13 00:57:35;;;;;;;4.67;3.50;;;21.50;92.70;;;;;;5047794;28;20491;-66
2023/11/13 01:00:05;;;;;;;4.60;3.20;;;21.50;92.70;;;;;;5048484;28;20458;-63
2023/11/13 01:02:32;;;;;;;3.07;2.47;;;21.50;92.70;;;;;;5049661;28;20980;-66
2023/11/13 01:04:59;;;;;;;3.20;2.90;;;21.50;92.70;;;;;;5048185;28;22704;-63
2023/11/13 01:07:26;;;;;;;4.97;3.50;;;21.50;92.70;;;;;;5048499;28;20463;-64
2023/11/13 01:09:53;;;;;;;4.87;2.90;;;21.50;92.70;;;;;;5049696;28;20460;-65
2023/11/13 01:12:21;;;;;;;5.00;3.20;;;21.40;92.60;;;;;;5049317;28;20455;-66
2023/11/13 01:14:48;;;;;;;3.70;2.80;;;21.40;92.60;;;;;;5047698;28;20939;-62
2023/11/13 01:17:16;;;;;;;3.80;3.07;;;21.40;92.60;;;;;;5045413;28;20469;-64
2023/11/13 01:19:43;;;;;;;3.63;2.90;;;21.40;92.60;;;;;;5047201;28;20468;-66
2023/11/13 01:22:10;;;;;;;6.18;3.40;;;21.30;92.60;;;;;;5047141;28;20457;-63
2023/11/13 01:24:36;;;;;;;3.53;3.10;;;21.40;92.70;;;;;;5048759;28;20199;-65
2023/11/13 01:27:03;;;;;;;4.05;3.45;;;21.40;92.70;;;;;;5047720;28;20467;-64
2023/11/13 01:29:30;;;;;;;4.70;3.37;;;21.40;92.70;;;;;;5042781;28;20659;-65
2023/11/13 01:31:57;;;;;;;4.30;3.00;;;21.40;92.70;;;;;;5046492;28;20497;-66
2023/11/13 01:34:25;;;;;;;3.87;3.07;;;21.40;92.70;;;;;;5046051;28;20486;-64
2023/11/13 01:36:52;;;;;;;3.97;3.10;;;21.40;92.70;;;;;;5048025;28;20454;-66
2023/11/13 01:39:18;;;;;;;4.60;3.43;;;21.40;92.70;;;;;;5044734;28;20218;-65
2023/11/13 01:41:45;;;;;;;4.43;2.77;;;21.40;92.70;;;;;;5044796;28;20462;-65
2023/11/13 01:44:12;;;;;;;3.23;2.70;;;21.40;92.70;;;;;;5046353;28;20465;-63
2023/11/13 01:46:38;;;;;;;4.23;2.53;;;21.30;92.60;;;;;;5042407;28;20468;-65
2023/11/13 01:49:06;;;;;;;3.50;2.70;;;21.40;92.70;;;;;;5043322;28;20464;-66
2023/11/13 01:51:34;;;;;;;2.07;1.87;;;21.40;92.70;;;;;;5044241;28;20201;-67
2023/11/13 01:54:02;;;;;;;2.80;2.37;;;21.40;92.70;;;;;;5047179;28;20459;-65
2023/11/13 01:56:29;;;;;;;4.20;3.17;;;21.40;92.70;;;;;;5045785;28;20467;-66
2023/11/13 01:58:57;;;;;;;5.23;2.33;;;21.30;92.70;;;;;;5047770;28;20460;-65
2023/11/13 02:01:25;;;;;;;5.10;3.37;;;21.30;92.70;;;;;;5057240;22;20501;-62
2023/11/13 02:03:53;;;;;;;2.40;2.20;;;21.30;92.70;;;;;;5043459;28;20539;-62
2023/11/13 02:06:20;;;;;;;4.27;3.53;;;21.40;92.70;;;;;;5041526;28;20479;-62
2023/11/13 02:08:48;;;;;;;3.60;2.30;;;21.30;92.70;;;;;;5043346;28;20480;-62
2023/11/13 02:11:16;;;;;;;4.17;2.80;;;21.30;92.70;;;;;;5040524;28;20481;-62
2023/11/13 02:13:44;;;;;;;2.27;2.03;;;21.30;92.70;;;;;;5046009;28;20553;-62
2023/11/13 02:16:12;;;;;;;3.40;3.10;;;21.30;92.70;;;;;;5042547;28;20472;-62
2023/11/13 02:18:39;;;;;;;5.22;3.22;;;21.30;92.70;;;;;;5045151;28;20452;-62
2023/11/13 02:21:06;;;;;;;3.00;2.70;;;21.30;92.70;;;;;;5043483;28;20271;-62
2023/11/13 02:23:34;;;;;;;4.40;2.40;;;21.30;92.70;;;;;;5034256;28;20446;-62
2023/11/13 02:26:07;;;;;;;6.30;3.20;;;21.30;92.70;;;;;;5033019;28;20476;-63
2023/11/13 02:28:34;;;;;;;3.17;2.70;;;21.30;92.70;;;;;;5032978;28;20458;-62
2023/11/13 02:31:01;;;;;;;3.92;2.60;;;21.30;92.70;;;;;;5031747;28;20468;-63
2023/11/13 02:33:27;;;;;;;4.17;2.80;;;21.30;92.70;;;;;;5035783;28;20217;-62
2023/11/13 02:35:54;;;;;;;5.10;2.93;;;21.30;92.70;;;;;;5031479;28;20481;-62
2023/11/13 02:38:21;;;;;;;3.20;2.73;;;21.30;92.70;;;;;;5035917;28;20457;-62
2023/11/13 02:40:49;;;;;;;2.75;2.28;;;21.30;92.80;;;;;;5029749;28;20458;-62
2023/11/13 02:43:16;;;;;;;4.07;2.43;;;21.30;92.70;;;;;;5034567;28;20191;-62
2023/11/13 02:45:42;;;;;;;3.20;2.30;;;21.30;92.70;;;;;;5032349;28;20472;-63
2023/11/13 02:48:09;;;;;;;5.37;3.13;;;21.20;92.70;;;;;;5028170;28;20462;-62
2023/11/13 02:50:36;;;;;;;3.20;2.10;;;21.20;92.70;;;;;;5023466;28;20506;-62
2023/11/13 02:53:03;;;;;;;3.40;2.70;;;21.20;92.70;;;;;;5022227;28;20771;-62
2023/11/13 02:55:30;;;;;;;3.95;2.63;;;21.20;92.70;;;;;;5025712;28;20223;-62
2023/11/13 02:57:58;;;;;;;2.85;2.20;;;21.20;92.70;;;;;;5024931;28;20196;-61
2023/11/13 03:00:24;;;;;;;3.00;2.67;;;21.20;92.70;;;;;;5028879;28;20204;-62
2023/11/13 03:02:52;;;;;;;3.00;2.70;;;21.20;92.70;;;;;;5033657;28;20470;-62
2023/11/13 03:05:18;;;;;;;3.27;2.70;;;21.20;92.70;;;;;;5034867;28;20461;-62
2023/11/13 03:07:45;;;;;;;2.70;2.20;;;21.20;92.70;;;;;;5032928;28;20446;-62
2023/11/13 03:10:12;;;;;;;2.55;2.35;;;21.20;92.70;;;;;;5036405;28;20460;-62
2023/11/13 03:12:40;;;;;;;3.33;2.50;;;21.20;92.70;;;;;;5038578;28;20187;-61
2023/11/13 03:15:10;;;;;;;3.20;2.90;;;21.20;92.70;;;;;;5034933;28;20496;-61
2023/11/13 03:17:37;;;;;;;2.92;2.40;;;21.20;92.70;;;;;;5034688;28;20911;-63
2023/11/13 03:20:04;;;;;;;2.73;2.40;;;21.20;92.70;;;;;;5034880;28;20194;-62
2023/11/13 03:22:31;;;;;;;3.97;2.40;;;21.20;92.70;;;;;;5030485;28;20855;-62
2023/11/13 03:24:58;;;;;;;2.97;2.77;;;21.20;92.70;;;;;;5033650;28;20928;-62
2023/11/13 03:27:24;;;;;;;2.80;2.47;;;21.20;92.70;;;;;;5034126;28;20454;-62
2023/11/13 03:29:51;;;;;;;3.40;3.10;;;21.10;92.70;;;;;;5034267;28;20461;-61
2023/11/13 03:32:19;;;;;;;3.57;2.77;;;21.20;92.70;;;;;;5031905;28;20667;-63
2023/11/13 03:34:46;;;;;;;2.90;2.38;;;21.20;92.70;;;;;;5034406;28;20465;-62
2023/11/13 03:37:13;;;;;;;2.47;2.10;;;21.20;92.70;;;;;;5034254;28;20651;-62
2023/11/13 03:39:40;;;;;;;2.75;2.03;;;21.20;92.70;;;;;;5032200;28;20464;-62
2023/11/13 03:42:09;;;;;;;3.83;2.30;;;21.10;92.70;;;;;;5035338;28;20188;-62
2023/11/13 03:44:35;;;;;;;3.05;2.75;;;21.10;92.70;;;;;;5035187;28;20465;-62
2023/11/13 03:47:03;;;;;;;3.20;2.50;;;21.10;92.70;;;;;;5038437;28;20353;-62
2023/11/13 03:49:31;;;;;;;2.80;2.45;;;21.10;92.70;;;;;;5037719;28;20523;-62
2023/11/13 03:51:57;;;;;;;5.07;3.20;;;21.10;92.70;;;;;;5036840;28;20206;-62
2023/11/13 03:54:24;;;;;;;4.50;2.67;;;21.10;92.70;;;;;;5036457;28;20462;-61
2023/11/13 03:56:51;;;;;;;2.70;2.25;;;21.10;92.70;;;;;;5037901;28;20219;-62
2023/11/13 03:59:18;;;;;;;2.72;2.47;;;21.10;92.70;;;;;;5037626;28;20199;-62
2023/11/13 04:01:47;;;;;;;3.72;2.40;;;21.10;92.70;;;;;;5038730;28;20211;-62
2023/11/13 04:04:14;;;;;;;3.60;2.53;;;21.10;92.70;;;;;;5038921;28;20200;-62
2023/11/13 04:06:42;;;;;;;3.55;2.20;;;21.10;93.00;;;;;;5039866;28;20475;-62
2023/11/13 04:09:09;;;;;;;2.95;2.13;;;21.10;92.70;;;;;;5038590;28;20272;-62
2023/11/13 04:11:36;;;;;;;2.28;1.98;;;21.10;92.70;;;;;;5043074;28;20584;-62
2023/11/13 04:14:03;;;;;;;2.60;2.38;;;21.10;92.70;;;;;;5041237;28;20655;-62
2023/11/13 04:16:29;;;;;;;2.67;2.20;;;21.10;92.70;;;;;;5041265;28;20232;-62
2023/11/13 04:18:56;;;;;;;2.38;2.17;;;21.10;92.70;;;;;;5041259;28;20822;-64
2023/11/13 04:21:23;;;;;;;2.60;2.40;;;21.10;92.70;;;;;;5040917;28;20711;-64
2023/11/13 04:23:51;;;;;;;3.35;2.40;;;21.10;92.80;;;;;;5041445;28;20207;-64
2023/11/13 04:26:18;;;;;;;2.42;2.17;;;21.10;92.70;;;;;;5044268;28;20205;-63
2023/11/13 04:28:45;;;;;;;4.70;2.70;;;21.10;92.70;;;;;;5043963;28;20299;-63
2023/11/13 04:31:15;;;;;;;3.88;2.60;;;21.10;92.70;;;;;;5039603;28;20207;-64
2023/11/13 04:33:42;;;;;;;2.83;2.10;;;21.00;92.60;;;;;;5031485;28;20567;-63
2023/11/13 04:36:09;;;;;;;3.43;2.27;;;21.00;92.70;;;;;;5031941;28;20223;-64
2023/11/13 04:38:37;;;;;;;3.13;2.38;;;21.00;92.70;;;;;;5034061;28;21138;-64
2023/11/13 04:41:06;;;;;;;2.40;2.20;;;21.00;92.70;;;;;;5035880;28;20198;-64
2023/11/13 04:43:33;;;;;;;3.25;2.20;;;21.10;92.70;;;;;;5037771;28;20969;-63
2023/11/13 04:45:59;;;;;;;2.20;2.00;;;21.10;92.70;;;;;;5036199;28;20211;-64
2023/11/13 04:48:26;;;;;;;3.30;2.25;;;21.00;92.70;;;;;;5035582;28;20238;-64
2023/11/13 04:50:53;;;;;;;2.03;1.75;;;21.00;92.70;;;;;;5035452;28;20201;-64
2023/11/13 04:53:20;;;;;;;2.35;2.03;;;21.00;92.70;;;;;;5038569;28;20551;-64
2023/11/13 04:55:47;;;;;;;2.97;2.50;;;21.00;92.60;;;;;;5033814;28;20318;-64
2023/11/13 04:58:15;;;;;;;2.40;2.20;;;21.00;92.60;;;;;;5029594;28;20197;-63
2023/11/13 05:00:42;;;;;;;2.60;1.98;;;21.00;92.70;;;;;;5027351;28;20208;-64
2023/11/13 05:03:09;;;;;;;3.00;2.40;;;21.00;92.70;;;;;;5031511;28;20197;-63
2023/11/13 05:05:36;;;;;;;3.05;2.25;;;21.00;92.70;;;;;;5029822;28;20206;-64
2023/11/13 05:08:04;;;;;;;2.28;1.90;;;21.00;92.70;;;;;;5034873;28;20198;-64
2023/11/13 05:10:32;;;;;;;2.53;1.70;;;21.00;92.70;;;;;;5034921;28;20196;-64
2023/11/13 05:12:59;;;;;;;2.10;1.88;;;21.00;92.70;;;;;;5035316;28;20481;-63
2023/11/13 05:15:27;;;;;;;2.08;1.67;;;21.00;92.60;;;;;;5034772;28;20256;-64
2023/11/13 05:17:55;;;;;;;2.00;1.80;;;21.00;92.70;;;;;;5033559;28;20199;-63
2023/11/13 05:20:22;;;;;;;2.08;1.65;;;21.00;92.70;;;;;;5033468;28;20208;-64
2023/11/13 05:22:50;;;;;;;2.53;1.95;;;20.90;92.50;;;;;;5033934;28;20225;-64
2023/11/13 05:25:17;;;;;;;2.42;2.22;;;21.00;92.70;;;;;;5031248;28;20210;-64
2023/11/13 05:27:44;;;;;;;2.30;1.58;;;21.00;92.70;;;;;;5037578;28;20190;-64
2023/11/13 05:30:12;;;;;;;4.20;2.67;;;21.00;92.70;;;;;;5033412;28;20203;-64
2023/11/13 05:32:40;;;;;;;2.27;2.07;;;21.00;92.70;;;;;;5035884;28;20193;-63
2023/11/13 05:35:07;;;;;;;2.60;2.28;;;21.00;92.70;;;;;;5035322;28;20473;-64
2023/11/13 05:37:34;;;;;;;1.98;1.55;;;21.00;92.70;;;;;;5033523;28;20752;-64
2023/11/13 05:40:01;;;;;;;4.00;2.37;;;21.00;92.60;;;;;;5027878;28;20195;-64
2023/11/13 05:42:28;;;;;;;2.30;2.10;;;21.00;92.60;;;;;;5033685;28;20548;-64
2023/11/13 05:44:55;;;;;;;2.00;1.80;;;21.00;92.60;;;;;;5035611;28;20198;-63
2023/11/13 05:47:22;;;;;;;2.33;1.80;;;21.00;92.60;;;;;;5032582;28;20204;-63
2023/11/13 05:49:50;;;;;;;4.10;2.07;;;21.00;92.60;;;;;;5034809;28;20607;-64
2023/11/13 05:52:18;;;;;;;4.40;2.03;;;20.90;92.60;;;;;;5032985;28;20683;-63
2023/11/13 05:54:45;;;;;;;2.63;2.07;;;20.90;92.60;;;;;;5028159;28;20195;-63
2023/11/13 05:57:12;;;;;;;3.20;1.77;;;20.90;92.70;;;;;;5035888;28;20730;-64
2023/11/13 05:59:38;;;;;;;2.37;2.20;;;20.90;92.70;;;;;;5036875;28;20463;-62
2023/11/13 06:02:05;;;;;;;2.80;2.40;;;21.00;92.70;;;;;;5037028;28;20461;-62
2023/11/13 06:04:35;;;;;;;2.03;1.83;;;20.90;92.70;;;;;;5031748;28;20257;-63
2023/11/13 06:07:03;;;;;;;2.10;1.90;;;20.90;92.70;;;;;;5036964;28;20290;-63
2023/11/13 06:09:30;;;;;;;2.75;2.40;;;20.90;92.70;;;;;;5037575;28;20214;-63
2023/11/13 06:11:57;;;;;;;2.03;1.58;;;20.90;92.70;;;;;;5039435;28;20201;-63
2023/11/13 06:14:23;;;;;;;2.83;2.20;;;20.90;93.00;;;;;;5036963;28;20432;-63
2023/11/13 06:16:50;;;;;;;2.47;1.80;;;20.90;92.70;;;;;;5037231;28;20211;-63
2023/11/13 06:19:17;;;;;;;2.35;2.15;;;20.90;93.10;;;;;;5040259;28;20458;-63
2023/11/13 06:21:44;;;;;;;2.22;1.80;;;20.90;92.70;;;;;;5041276;28;20195;-63
2023/11/13 06:24:12;;;;;;;2.47;2.27;;;20.90;92.70;;;;;;5043261;28;20217;-63
2023/11/13 06:26:38;;;;;;;3.80;1.83;;;20.90;92.70;;;;;;5041562;28;20472;-63
2023/11/13 06:29:05;;;;;;;2.30;1.70;;;20.90;92.70;;;;;;5043580;28;20204;-63
2023/11/13 06:31:34;;;;;;;2.03;1.80;;;20.90;92.70;;;;;;5028013;28;20554;-65
2023/11/13 06:34:02;;;;;;;2.17;1.67;;;20.90;92.70;;;;;;5029336;28;20659;-63
2023/11/13 06:36:30;;;;;;;2.58;2.00;;;20.90;93.00;;;;;;5026514;28;20682;-63
2023/11/13 06:38:57;;;;;;;2.00;1.70;;;20.90;92.70;;;;;;5033806;28;20195;-63
2023/11/13 06:41:25;;;;;;;2.03;1.83;;;20.90;92.70;;;;;;5034186;28;20191;-63
2023/11/13 06:43:53;;;;;;;2.50;1.80;;;20.90;92.70;;;;;;5034793;28;20198;-63
2023/11/13 06:46:20;;;;;;;2.30;2.03;;;20.90;92.70;;;;;;5029955;28;20203;-63
2023/11/13 06:48:48;;;;;;;1.88;1.77;;;20.90;92.70;;;;;;5034977;28;20726;-63
2023/11/13 06:51:15;;;;;;;1.90;1.70;;;20.90;92.70;;;;;;5032239;28;20218;-63
2023/11/13 06:53:42;;;;;;;2.30;1.92;;;20.90;92.70;;;;;;5038007;28;20187;-63
2023/11/13 06:56:09;;;;;;;2.00;1.80;;;20.90;92.70;;;;;;5024668;28;20297;-63
2023/11/13 06:58:38;;;;;;;1.60;1.35;;;20.90;92.60;;;;;;5027655;28;20187;-64
2023/11/13 07:01:05;;;;;;;2.17;1.80;;;20.80;92.60;;;;;;5026670;28;20610;-63
2023/11/13 07:03:32;;;;;;;1.83;1.55;;;20.80;92.50;;;;;;5033074;28;20191;-63
2023/11/13 07:05:59;;;;;;;2.25;1.73;;;20.80;92.50;;;;;;5029970;28;20308;-63
2023/11/13 07:08:26;;;;;;;2.50;1.90;;;20.80;92.50;;;;;;5034004;28;20195;-63
2023/11/13 07:10:54;;;;;;;2.20;1.80;;;20.80;92.60;;;;;;5032474;28;20573;-63
2023/11/13 07:13:20;;;;;;;1.92;1.75;;;20.70;92.50;;;;;;5031640;28;20235;-63
2023/11/13 07:15:48;;;;;;;1.70;1.60;;;20.80;92.50;;;;;;5035953;28;20195;-63
2023/11/13 07:18:15;;;;;;;2.08;1.88;;;20.80;92.50;;;;;;5036696;28;20191;-63
2023/11/13 07:20:42;;;;;;;2.35;2.15;;;20.80;92.50;;;;;;5035630;28;20199;-63
2023/11/13 07:23:10;;;;;;;1.92;1.70;;;20.80;92.50;;;;;;5038412;28;20199;-63
2023/11/13 07:25:37;;;;;;;1.95;1.75;;;20.80;92.60;;;;;;5036129;28;20239;-62
2023/11/13 07:28:04;;;;;;;2.23;1.73;;;20.70;92.60;;;;;;5037188;28;20846;-63
2023/11/13 07:30:33;;;;;;;2.53;1.80;;;20.80;92.70;;;;;;5037423;28;20463;-63
2023/11/13 07:33:01;;;;;;;2.13;1.60;;;20.80;92.70;;;;;;5041925;28;20199;-63
2023/11/13 07:35:28;;;;;;;2.25;1.95;;;20.80;92.70;;;;;;5037987;28;20326;-63
2023/11/13 07:37:55;;;;;;;1.98;1.75;;;20.80;92.70;;;;;;5032511;28;20226;-63
2023/11/13 07:40:22;;;;;;;2.47;1.90;;;20.80;92.80;;;;;;5030556;28;20210;-63
2023/11/13 07:42:49;;;;;;;1.30;1.20;;;20.80;92.80;;;;;;5032445;28;20202;-63
2023/11/13 07:45:17;;;;;;;2.00;1.80;;;20.80;92.90;;;;;;5035083;28;20211;-63
2023/11/13 07:47:46;;;;;;;1.58;1.40;;;20.80;92.90;;;;;;5037074;28;20908;-63
2023/11/13 07:50:14;;;;;;;2.33;1.55;;;20.90;92.90;;;;;;5033172;28;20333;-63
2023/11/13 07:52:43;;;;;;;2.28;1.75;;;20.90;93.00;;;;;;5032836;28;20450;-63
2023/11/13 07:55:10;;;;;;;1.98;1.58;;;20.90;92.90;;;;;;5033243;28;20761;-63
2023/11/13 07:57:38;;;;;;;2.53;1.92;;;20.90;93.00;;;;;;5036721;28;20254;-63
2023/11/13 08:00:09;;;;;;;1.87;1.50;;;20.90;92.90;;;;;;5031403;28;20842;-63
2023/11/13 08:02:37;;;;;;;2.30;1.88;;;20.90;93.00;;;;;;5037249;28;20475;-63
2023/11/13 08:05:04;;;;;;;2.00;1.58;;;21.00;93.00;;;;;;5034071;28;20249;-64
2023/11/13 08:07:32;;;;;;;2.20;1.50;;;21.00;93.00;;;;;;5037568;28;20209;-64
2023/11/13 08:10:01;;;;;;;2.38;2.17;;;21.00;93.10;;;;;;5038445;28;20230;-63
2023/11/13 08:12:28;;;;;;;2.17;1.83;;;21.00;93.10;;;;;;5036816;28;20605;-63
2023/11/13 08:14:56;;;;;;;2.30;1.80;;;21.00;93.10;;;;;;5034165;28;20936;-63
2023/11/13 08:17:22;;;;;;;2.53;1.67;;;21.00;93.10;;;;;;5033753;28;20480;-64
2023/11/13 08:19:49;;;;;;;2.27;2.00;;;21.00;93.10;;;;;;5033898;28;20457;-63
2023/11/13 08:22:16;;;;;;;1.87;1.63;;;21.00;93.10;;;;;;5032364;28;21059;-64
2023/11/13 08:24:44;;;;;;;2.17;1.77;;;21.10;93.20;;;;;;5034806;28;20464;-63
2023/11/13 08:27:15;;;;;;;2.40;2.20;;;21.10;93.30;;;;;;5038733;28;20241;-63
2023/11/13 08:29:43;;;;;;;2.33;1.53;;;21.10;93.20;;;;;;5040082;28;20938;-63
2023/11/13 08:32:10;;;;;;;1.80;1.50;;;21.10;93.30;;;;;;5043119;28;20460;-63
2023/11/13 08:34:38;;;;;;;2.20;1.77;;;21.10;93.20;;;;;;5044324;28;20506;-63
2023/11/13 08:37:05;;;;;;;2.33;1.97;;;21.10;93.20;;;;;;5042671;28;21235;-63
2023/11/13 08:39:32;;;;;;;2.10;1.30;;;21.10;93.20;;;;;;5044268;28;20464;-63
2023/11/13 08:42:01;;;;;;;1.90;1.80;;;21.10;93.20;;;;;;5034532;28;20453;-63
2023/11/13 08:44:29;;;;;;;1.90;1.70;;;21.10;93.20;;;;;;5034658;28;20542;-64
2023/11/13 08:46:56;;;;;;;1.80;1.63;;;21.10;93.20;;;;;;5031200;28;20468;-63
2023/11/13 08:49:23;;;;;;;1.53;1.37;;;21.10;93.20;;;;;;5030875;28;20540;-62
2023/11/13 08:51:49;;;;;;;1.87;1.70;;;21.10;93.20;;;;;;5034258;28;20786;-62
2023/11/13 08:54:18;;;;;;;2.87;1.50;;;21.10;93.20;;;;;;5034755;28;20457;-62
2023/11/13 08:56:49;;;;;;;2.93;1.90;;;21.10;93.10;;;;;;5034645;28;20489;-63
2023/11/13 08:59:18;;;;;;;1.93;1.57;;;21.20;93.20;;;;;;5025077;28;20443;-65
2023/11/13 09:01:44;;;;;;;2.10;1.60;;;21.20;93.20;;;;;;5033423;28;21295;-62
2023/11/13 09:04:11;;;;;;;2.10;1.60;;;21.10;93.10;;;;;;5031115;28;20459;-64
2023/11/13 09:06:38;;;;;;;2.07;1.63;;;21.20;93.10;;;;;;5025147;28;20891;-64
2023/11/13 09:09:11;;;;;;;2.30;2.10;;;21.20;93.20;;;;;;5025118;28;20510;-62
2023/11/13 09:11:40;;;;;;;3.10;2.13;;;21.20;93.10;;;;;;5022318;28;20551;-62
2023/11/13 09:14:09;;;;;;;1.40;1.27;;;21.20;93.10;;;;;;5026101;28;20550;-62
2023/11/13 09:16:38;;;;;;;2.10;1.80;;;21.20;93.10;;;;;;5024913;28;20690;-64
2023/11/13 09:19:06;;;;;;;2.40;1.93;;;21.20;93.10;;;;;;5026842;28;20523;-63
2023/11/13 09:21:34;;;;;;;1.83;1.53;;;21.20;93.40;;;;;;5023768;28;21003;-61
2023/11/13 09:24:01;;;;;;;4.13;1.50;;;21.20;93.50;;;;;;5021219;28;20449;-64
2023/11/13 09:26:29;;;;;;;6.50;2.10;;;21.20;93.50;;;;;;5025793;28;20463;-64
2023/11/13 09:28:56;;;;;;;1.80;1.60;;;21.20;93.50;;;;;;5025528;28;20457;-64
2023/11/13 09:31:23;;;;;;;2.00;1.43;;;21.20;93.50;;;;;;5027677;28;20629;-64
2023/11/13 09:33:52;;;;;;;2.57;1.80;;;21.20;93.50;;;;;;5028205;28;20458;-63
2023/11/13 09:36:19;;;;;;;1.67;1.58;;;21.20;93.60;;;;;;5025612;28;21061;-63
2023/11/13 09:38:45;;;;;;;5.17;2.00;;;21.20;93.60;;;;;;5025793;28;20222;-63
2023/11/13 09:41:16;;;;;;;2.20;2.00;;;21.20;93.50;;;;;;5032954;28;20453;-63
2023/11/13 09:43:43;;;;;;;2.60;1.50;;;21.20;93.60;;;;;;5037346;28;20538;-63
2023/11/13 09:46:12;;;;;;;2.30;1.80;;;21.20;93.60;;;;;;5028544;28;20466;-63
2023/11/13 09:48:46;;;;;;;1.80;1.40;;;21.20;93.50;;;;;;5033065;28;20470;-64
2023/11/13 09:51:16;;;;;;;1.93;1.67;;;21.30;93.60;;;;;;5027207;28;20449;-64
2023/11/13 09:53:43;;;;;;;1.70;1.40;;;21.30;93.60;;;;;;5032972;28;20541;-63
2023/11/13 09:56:15;;;;;;;2.77;1.97;;;21.30;93.60;;;;;;5029061;28;20469;-64
2023/11/13 09:58:43;;;;;;;1.97;1.63;;;21.30;93.60;;;;;;5029874;28;20841;-64
2023/11/13 10:01:13;;;;;;;2.33;1.40;;;21.30;93.50;;;;;;5030149;28;20467;-63
2023/11/13 10:03:41;;;;;;;1.90;1.50;;;21.30;93.50;;;;;;5031828;28;20535;-63
2023/11/13 10:06:11;;;;;;;2.70;1.80;;;21.30;93.50;;;;;;5030155;28;20792;-63
2023/11/13 10:08:43;;;;;;;1.30;1.10;;;21.30;93.50;;;;;;5036049;28;20972;-64
2023/11/13 10:11:11;;;;;;;2.27;2.07;;;21.30;93.50;;;;;;5032157;28;20453;-64
2023/11/13 10:13:38;;;;;;;3.33;1.90;;;21.30;93.40;;;;;;5032104;28;20471;-61
2023/11/13 10:16:20;;;;;;;5.60;1.50;;;21.30;93.50;;;;;;5032142;28;20452;-58
2023/11/13 10:18:49;;;;;;;2.27;1.70;;;21.30;93.70;;;;;;5037095;28;20611;-59
2023/11/13 10:21:32;;;;;;;6.40;1.97;;;21.30;92.90;;;;;;5033033;28;20950;-64
2023/11/13 10:24:19;;;;;;;4.50;1.70;;;21.30;93.10;;;;;;5032465;28;21009;-58
2023/11/13 10:26:50;;;;;;;2.13;1.33;;;21.30;93.00;;;;;;5037071;28;20845;-61
2023/11/13 10:29:26;;;;;;;8.80;1.90;;;21.30;92.90;;;;;;5036434;28;20541;-61
2023/11/13 10:31:53;;;;;;;2.23;1.63;;;21.30;92.90;;;;;;5038523;28;20453;-61
2023/11/13 10:34:20;;;;;;;2.93;1.30;;;21.30;93.00;;;;;;5041699;28;20488;-61
2023/11/13 10:37:08;;;;;;;3.50;1.23;;;21.30;92.90;;;;;;5041675;28;20793;-62
2023/11/13 10:39:37;;;;;;;3.60;1.87;;;21.30;93.00;;;;;;5040876;28;20892;-61
2023/11/13 10:42:06;;;;;;;1.77;1.57;;;21.30;93.00;;;;;;5042920;28;20462;-60
2023/11/13 10:44:37;;;;;;;4.43;1.50;;;21.30;93.00;;;;;;5044759;28;20962;-58
2023/11/13 10:47:20;;;;;;;5.73;2.00;;;21.30;93.00;;;;;;5035574;28;20453;-60
2023/11/13 10:49:49;;;;;;;2.13;1.67;;;21.30;93.00;;;;;;5043026;28;20453;-61
2023/11/13 10:52:17;;;;;;;4.40;1.30;;;21.30;93.00;;;;;;5042131;28;20460;-58
2023/11/13 10:54:48;;;;;;;4.53;1.90;;;21.30;93.00;;;;;;5042785;28;20441;-58
2023/11/13 10:57:16;;;;;;;2.23;2.03;;;21.30;93.00;;;;;;5045214;28;20478;-58
2023/11/13 10:59:46;;;;;;;2.50;2.10;;;21.30;93.00;;;;;;5043445;28;20464;-60
2023/11/13 11:02:30;;;;;;;3.00;1.50;;;21.40;93.00;;;;;;5041565;28;20469;-59
2023/11/13 11:05:02;;;;;;;1.53;1.23;;;21.30;93.00;;;;;;5043785;28;20478;-60
2023/11/13 11:07:32;;;;;;;2.33;1.30;;;21.30;93.00;;;;;;5040670;28;20530;-61
2023/11/13 11:10:04;;;;;;;1.40;1.10;;;21.30;93.00;;;;;;5023181;28;20465;-60
2023/11/13 11:12:35;;;;;;;1.63;1.33;;;21.30;93.00;;;;;;5033888;28;20496;-60
2023/11/13 11:15:23;;;;;;;3.50;1.90;;;21.30;93.00;;;;;;5020855;28;20784;-59
2023/11/13 11:18:01;;;;;;;2.20;2.00;;;21.20;92.90;;;;;;5021406;28;20485;-62
2023/11/13 11:20:37;;;;;;;1.63;1.33;;;21.40;93.20;;;;;;5022183;28;20747;-62
2023/11/13 11:23:07;;;;;;;2.77;1.60;;;21.30;93.00;;;;;;5022793;28;20459;-61
2023/11/13 11:25:47;;;;;;;2.70;1.53;;;21.30;93.00;;;;;;5022846;28;20461;-62
2023/11/13 11:28:43;;;;;;;1.37;1.27;;;21.30;93.00;;;;;;5023705;28;21107;-62
2023/11/13 11:31:47;;;;;;;2.37;1.77;;;21.30;93.00;;;;;;5026785;28;20442;-62
2023/11/13 11:34:22;;;;;;;1.90;1.20;;;21.40;93.10;;;;;;5033364;28;20461;-61
2023/11/13 11:36:55;;;;;;;1.50;1.10;;;21.30;93.10;;;;;;5035892;28;20984;-61
2023/11/13 11:39:24;;;;;;;2.57;1.07;;;21.30;93.10;;;;;;5037129;28;20483;-59
2023/11/13 11:41:54;;;;;;;5.70;1.53;;;21.30;93.20;;;;;;5035499;28;20469;-59
2023/11/13 11:44:24;;;;;;;6.00;1.80;;;21.40;93.40;;;;;;5030506;28;20473;-58
2023/11/13 11:46:52;;;;;;;2.17;1.50;;;21.30;93.50;;;;;;5037537;28;21094;-60
2023/11/13 11:49:24;;;;;;;2.30;1.53;;;21.40;93.50;;;;;;5038658;28;20547;-58
2023/11/13 11:51:52;;;;;;;3.63;1.57;;;21.40;93.60;;;;;;5034993;28;20967;-58
2023/11/13 11:54:18;;;;;;;2.53;1.73;;;21.40;93.60;;;;;;5036969;28;20465;-56
2023/11/13 11:56:57;;;;;;;4.90;1.50;;;21.40;93.80;;;;;;5038398;28;20752;-53
2023/11/13 11:59:27;;;;;;;6.10;1.90;;;21.30;93.70;;;;;;5039235;28;20524;-53
2023/11/13 12:01:54;;;;;;;4.40;1.90;;;21.30;93.90;;;;;;5035152;28;20467;-56
2023/11/13 12:04:21;;;;;;;3.83;1.30;;;21.30;93.90;;;;;;5040342;28;21152;-60
2023/11/13 12:06:49;;;;;;;4.30;1.77;;;21.30;93.80;;;;;;5036877;28;20465;-56
2023/11/13 12:09:17;;;;;;;2.00;1.30;;;21.30;94.00;;;;;;5040719;28;20460;-55
2023/11/13 12:11:45;;;;;;;2.97;1.57;;;21.30;94.00;;;;;;5040279;28;20446;-58
2023/11/13 12:14:14;;;;;;;1.70;1.30;;;21.30;93.90;;;;;;5044974;28;20457;-56
2023/11/13 12:16:40;;;;;;;2.50;1.47;;;21.30;93.70;;;;;;5042088;28;21005;-53
2023/11/13 12:19:09;;;;;;;2.87;1.37;;;21.20;93.60;;;;;;5034812;28;20491;-58
2023/11/13 12:21:36;;;;;;;5.50;1.38;;;21.20;93.80;;;;;;5035975;28;20458;-55
2023/11/13 12:24:03;;;;;;;7.50;1.33;;;21.20;93.70;;;;;;5040734;28;20200;-57
2023/11/13 12:26:30;;;;;;;2.03;1.30;;;21.20;93.60;;;;;;5039280;28;21784;-64
2023/11/13 12:28:59;;;;;;;1.37;1.00;;;21.20;93.80;;;;;;5036271;28;20520;-64
2023/11/13 12:31:28;;;;;;;1.63;1.40;;;21.20;93.70;;;;;;5031422;28;20469;-68
2023/11/13 12:33:55;;;;;;;3.00;1.40;;;21.30;93.90;;;;;;5035804;28;20602;-61
2023/11/13 12:36:21;;;;;;;7.67;1.70;;;21.30;93.90;;;;;;5029970;28;20754;-61
2023/11/13 12:38:48;;;;;;;6.53;1.47;;;21.30;93.90;;;;;;5038557;28;21122;-61
2023/11/13 12:41:18;;;;;;;1.67;1.10;;;21.30;93.80;;;;;;5041655;28;20461;-64
2023/11/13 12:43:46;;;;;;;4.23;1.47;;;21.30;93.80;;;;;;5035187;28;20599;-63
2023/11/13 12:46:13;;;;;;;1.97;1.67;;;21.30;93.80;;;;;;5034086;28;20466;-66
2023/11/13 12:48:42;;;;;;;2.90;1.33;;;21.30;93.80;;;;;;5039677;28;20469;-65
2023/11/13 12:51:10;;;;;;;3.40;1.47;;;21.30;93.80;;;;;;5038964;28;20463;-66
2023/11/13 12:53:38;;;;;;;1.50;1.20;;;21.40;93.80;;;;;;5034425;28;20465;-64